Union Hall, VA (24176)

8:57 PM EST on December 08, 2016 (GMT -0500)
Virginia Key (Piney Point Rd) | | Change Station

Elev 843 ft 37.03 °N, 79.67 °W | Updated 14 seconds ago

Partly Cloudy
Partly Cloudy
39.7 °F
Feels Like 36 °F
N
4.7
Wind Variable Wind from WNW
Gusts 9.4 mph

Today
High -- | Low -- °F
--% Chance of Precip.
Yesterday
High -- | Low -- °F
Precip. -- in
Pressure 30.24 in
Visibility 10.0 miles
Clouds Clear
Windchill 36 °F
Dew Point 27 °F
Humidity 61%
Rainfall 0.00 in
Snow Depth Not available.
7:19 AM 5:01 PM
Waxing Gibbous, 69% visible
METAR KROA 090154Z 30015G22KT 10SM CLR 02/M13 A3022 RMK AO2 PK WND 29029/0111 SLP238 T00171128
Pressure 30.24 in
Visibility 10.0 miles
Clouds Clear
Windchill 36 °F
Dew Point 27 °F
Humidity 61%
Rainfall 0.00 in
Snow Depth Not available.
7:19 AM 5:01 PM
Waxing Gibbous, 69% visible
METAR KROA 090154Z 30015G22KT 10SM CLR 02/M13 A3022 RMK AO2 PK WND 29029/0111 SLP238 T00171128

10-Day Weather Forecast

Almanac

Astronomy

Dec. 08, 2016 Rise Set
Actual Time
Civil Twilight
Nautical Twilight
Astronomical Twilight
Moon
Length of Visible Light
Length of Day
Tomorrow will be .
, % of the Moon is Illuminated

Today's Extremes

State Highs State Lows

Community

WunderPhotos

Upload Photos

1,956,351 photos uploaded!

WunderBlog® & News

Nearby

Air Quality

  Air Quality AQ Index Pollutant
Not available.

Snow Depth

Station Depth Elevation

Earthquake Activity

City Distance Mag. Time & Date
Minimum magnitude displayed is 2.5.

Coastal Water Temperatures

Place Temperature

Stations

Nearby Weather Stations

Station Location Temp. Windchill Dew Point Humidity Wind Precip. Elev Updated Type
                   

Watches & Warnings

There are currently no watches in effect.